Time;durP1;ratioP1;P1;durP2;ratioP2;P2;SDS_P1;SDS_P2;PMS_P1;PMS_P2;Temp;Humidity;BMP_temperature;BMP_pressure;BME280_temperature;BME280_humidity;BME280_pressure;Samples;Min_cycle;Max_cycle;Signal;HPM_P1;HPM_P2
2021/06/07 00:01:26;;;;;;;13.57;10.80;;;16.90;99.90;;;;;;5074306;28;20417;-73
2021/06/07 00:04:12;;;;;;;14.13;10.17;;;16.90;99.90;;;;;;5071289;28;20417;-72
2021/06/07 00:07:00;;;;;;;17.80;10.27;;;17.00;99.90;;;;;;5072071;28;20425;-72
2021/06/07 00:09:45;;;;;;;16.10;11.20;;;17.10;99.90;;;;;;5071777;28;20470;-72
2021/06/07 00:12:30;;;;;;;11.37;9.77;;;17.10;99.90;;;;;;5070170;28;20486;-72
2021/06/07 00:15:18;;;;;;;12.53;9.97;;;17.20;99.90;;;;;;5069955;28;20836;-73
2021/06/07 00:18:04;;;;;;;14.10;10.40;;;17.10;99.90;;;;;;5079169;28;20413;-73
2021/06/07 00:20:55;;;;;;;13.87;10.00;;;17.20;99.90;;;;;;5068168;28;20461;-73
2021/06/07 00:23:42;;;;;;;14.27;10.70;;;17.20;99.90;;;;;;5070710;28;20491;-73
2021/06/07 00:26:28;;;;;;;12.20;10.20;;;17.30;99.90;;;;;;5070372;28;20523;-72
2021/06/07 00:29:13;;;;;;;21.47;9.50;;;17.30;99.90;;;;;;5072188;28;20508;-73
2021/06/07 00:31:58;;;;;;;15.83;10.63;;;17.40;99.90;;;;;;5070743;28;20417;-73
2021/06/07 00:34:43;;;;;;;19.83;9.90;;;17.40;99.90;;;;;;5072326;28;20425;-72
2021/06/07 00:37:28;;;;;;;16.00;9.80;;;17.40;99.90;;;;;;5070640;28;20458;-72
2021/06/07 00:40:16;;;;;;;11.57;10.27;;;17.40;99.90;;;;;;5069669;28;20456;-73
2021/06/07 00:43:02;;;;;;;11.23;10.03;;;17.50;99.90;;;;;;5068992;28;20447;-73
2021/06/07 00:45:47;;;;;;;14.60;10.30;;;17.50;99.90;;;;;;5066261;28;20448;-73
2021/06/07 00:48:33;;;;;;;11.63;10.30;;;17.50;99.90;;;;;;5074960;28;20882;-72
2021/06/07 00:51:19;;;;;;;10.87;9.73;;;17.40;99.90;;;;;;5072209;28;20438;-72
2021/06/07 00:54:06;;;;;;;19.70;10.93;;;17.30;99.90;;;;;;5071396;28;20497;-69
2021/06/07 00:56:52;;;;;;;11.53;9.77;;;17.30;99.90;;;;;;5066640;28;20474;-73
2021/06/07 00:59:38;;;;;;;13.20;10.13;;;17.20;99.90;;;;;;5071123;28;20498;-73
2021/06/07 01:02:23;;;;;;;13.10;10.17;;;17.10;99.90;;;;;;5072736;28;20451;-72
2021/06/07 01:05:09;;;;;;;26.43;14.00;;;17.10;99.90;;;;;;5062413;28;20470;-72
2021/06/07 01:07:55;;;;;;;13.60;11.90;;;17.00;99.90;;;;;;5074268;28;20963;-71
2021/06/07 01:10:41;;;;;;;17.90;11.10;;;17.10;99.90;;;;;;5069686;28;20470;-73
2021/06/07 01:13:27;;;;;;;37.33;11.60;;;17.00;99.90;;;;;;5072619;28;20478;-73
2021/06/07 01:16:13;;;;;;;12.50;9.87;;;17.10;99.90;;;;;;5069790;28;20911;-73
2021/06/07 01:18:58;;;;;;;15.80;11.67;;;17.10;99.90;;;;;;5068900;28;20393;-73
2021/06/07 01:21:43;;;;;;;16.33;10.50;;;17.00;99.90;;;;;;5070730;28;20416;-71
2021/06/07 01:24:30;;;;;;;11.13;9.13;;;17.20;99.90;;;;;;5069029;28;20437;-73
2021/06/07 01:27:15;;;;;;;12.93;10.00;;;17.20;99.90;;;;;;5070144;28;20442;-71
2021/06/07 01:30:01;;;;;;;13.80;10.63;;;17.30;99.90;;;;;;5069657;28;20824;-72
2021/06/07 01:32:46;;;;;;;10.73;9.60;;;17.30;99.90;;;;;;5066745;28;20409;-73
2021/06/07 01:35:32;;;;;;;16.93;10.43;;;17.40;99.90;;;;;;5070623;28;20499;-71
2021/06/07 01:38:18;;;;;;;14.73;9.63;;;17.50;99.90;;;;;;5068784;28;20808;-71
2021/06/07 01:41:06;;;;;;;11.97;9.43;;;17.50;99.90;;;;;;5067227;28;20445;-72
2021/06/07 01:43:51;;;;;;;10.97;9.87;;;17.50;99.90;;;;;;5068384;28;20476;-73
2021/06/07 01:46:36;;;;;;;22.30;9.27;;;17.40;99.90;;;;;;5069011;28;20505;-73
2021/06/07 01:49:22;;;;;;;10.97;9.73;;;17.40;99.90;;;;;;5069710;28;20478;-73
2021/06/07 01:52:08;;;;;;;11.13;9.53;;;17.40;99.90;;;;;;5071574;28;20421;-73
2021/06/07 01:54:53;;;;;;;11.93;10.43;;;17.40;99.90;;;;;;5067627;28;20481;-69
2021/06/07 01:57:40;;;;;;;11.67;10.00;;;17.40;99.90;;;;;;5073192;28;20958;-71
2021/06/07 02:00:29;;;;;;;14.07;10.73;;;17.40;99.90;;;;;;5071483;28;20430;-73
2021/06/07 02:03:16;;;;;;;12.93;11.60;;;17.40;99.90;;;;;;5070752;28;20442;-72
2021/06/07 02:06:04;;;;;;;13.00;10.43;;;17.30;99.90;;;;;;5069089;28;20512;-73
2021/06/07 02:08:50;;;;;;;16.73;11.80;;;17.20;99.90;;;;;;5069742;28;20444;-72
2021/06/07 02:11:35;;;;;;;15.23;12.23;;;17.20;99.90;;;;;;5066203;28;20422;-73
2021/06/07 02:14:22;;;;;;;14.30;11.33;;;17.30;99.90;;;;;;5064379;28;20442;-72
2021/06/07 02:17:07;;;;;;;19.87;13.70;;;17.30;99.90;;;;;;5072686;28;20448;-73
2021/06/07 02:19:52;;;;;;;20.13;12.37;;;17.30;99.90;;;;;;5069721;28;20902;-73
2021/06/07 02:22:38;;;;;;;16.40;11.33;;;17.20;99.90;;;;;;5069385;28;20509;-72
2021/06/07 02:25:23;;;;;;;17.23;12.63;;;17.20;99.90;;;;;;5067789;28;20836;-73
2021/06/07 02:28:13;;;;;;;11.03;9.83;;;17.20;99.90;;;;;;5067955;28;20905;-73
2021/06/07 02:31:00;;;;;;;12.90;10.90;;;17.30;99.90;;;;;;5069637;28;20983;-70
2021/06/07 02:33:48;;;;;;;16.10;13.83;;;17.30;99.90;;;;;;5067651;28;20446;-73
2021/06/07 02:36:35;;;;;;;18.80;14.40;;;17.20;99.90;;;;;;5068469;28;20458;-71
2021/06/07 02:39:23;;;;;;;20.00;15.60;;;17.20;99.90;;;;;;5074153;28;20439;-71
2021/06/07 02:42:09;;;;;;;17.97;14.30;;;17.20;99.90;;;;;;5067855;28;20557;-72
2021/06/07 02:44:54;;;;;;;22.93;12.43;;;17.20;99.90;;;;;;5068787;28;20804;-73
2021/06/07 02:47:42;;;;;;;13.63;11.27;;;17.30;99.90;;;;;;5062437;28;20442;-73
2021/06/07 02:50:29;;;;;;;13.57;10.57;;;17.20;99.90;;;;;;5068441;28;20440;-71
2021/06/07 02:53:17;;;;;;;13.67;12.17;;;17.30;99.90;;;;;;5067967;28;20455;-72
2021/06/07 02:56:03;;;;;;;15.67;11.20;;;17.40;99.90;;;;;;5067443;28;20616;-73
2021/06/07 02:58:48;;;;;;;13.70;11.40;;;17.40;99.90;;;;;;5069637;28;20442;-74
2021/06/07 03:01:33;;;;;;;12.43;10.47;;;17.40;99.90;;;;;;5062019;28;20826;-73
2021/06/07 03:04:19;;;;;;;11.53;10.43;;;17.40;99.90;;;;;;5068996;28;21014;-73
2021/06/07 03:07:05;;;;;;;18.03;10.60;;;17.40;99.90;;;;;;5068375;28;20485;-69
2021/06/07 03:09:50;;;;;;;13.30;11.10;;;17.30;99.90;;;;;;5067861;28;20470;-74
2021/06/07 03:12:36;;;;;;;14.07;10.43;;;17.30;99.90;;;;;;5068263;28;20462;-72
2021/06/07 03:15:23;;;;;;;19.03;11.83;;;17.20;99.90;;;;;;5066640;28;20816;-72
2021/06/07 03:18:08;;;;;;;16.13;13.87;;;17.20;99.90;;;;;;5069479;28;20985;-73
2021/06/07 03:20:55;;;;;;;18.20;13.70;;;17.20;99.90;;;;;;5068029;28;20430;-73
2021/06/07 03:23:41;;;;;;;13.43;12.03;;;17.10;99.90;;;;;;5067066;28;20438;-73
2021/06/07 03:26:26;;;;;;;20.13;10.27;;;17.10;99.90;;;;;;5069807;28;20436;-73
2021/06/07 03:29:11;;;;;;;11.20;10.00;;;17.10;99.90;;;;;;5069316;28;20454;-71
2021/06/07 03:31:56;;;;;;;11.00;9.80;;;17.20;99.90;;;;;;5064883;28;20797;-73
2021/06/07 03:34:41;;;;;;;10.30;8.80;;;17.30;99.90;;;;;;5066475;28;20459;-74
2021/06/07 03:37:28;;;;;;;13.70;10.13;;;17.30;99.90;;;;;;5069418;28;20422;-73
2021/06/07 03:40:16;;;;;;;12.00;8.27;;;17.40;99.90;;;;;;5072715;28;20501;-73
2021/06/07 03:43:02;;;;;;;12.00;10.20;;;17.30;99.90;;;;;;5070099;28;20434;-72
2021/06/07 03:45:47;;;;;;;11.93;8.73;;;17.10;99.90;;;;;;5068392;28;21040;-71
2021/06/07 03:48:32;;;;;;;11.60;9.23;;;17.20;99.90;;;;;;5067874;28;20447;-73
2021/06/07 03:51:18;;;;;;;12.77;9.90;;;17.30;99.90;;;;;;5067319;28;20474;-72
2021/06/07 03:54:05;;;;;;;11.00;9.57;;;17.30;99.90;;;;;;5061597;28;20467;-73
2021/06/07 03:56:50;;;;;;;14.20;8.73;;;17.20;99.90;;;;;;5075902;28;20476;-71
2021/06/07 03:59:35;;;;;;;12.93;10.53;;;17.30;99.90;;;;;;5069514;28;21045;-73
2021/06/07 04:02:21;;;;;;;13.07;11.00;;;17.20;99.90;;;;;;5065700;28;20420;-71
2021/06/07 04:05:08;;;;;;;14.60;11.33;;;17.20;99.90;;;;;;5069057;28;20973;-72
2021/06/07 04:07:55;;;;;;;14.37;11.23;;;17.20;99.90;;;;;;5069602;28;20500;-69
2021/06/07 04:10:45;;;;;;;11.33;9.50;;;17.10;99.90;;;;;;5067492;28;20483;-72
2021/06/07 04:13:30;;;;;;;14.17;11.60;;;17.00;99.90;;;;;;5071015;28;20431;-72
2021/06/07 04:16:16;;;;;;;14.50;10.60;;;17.00;99.90;;;;;;5071428;28;20552;-73
2021/06/07 04:19:01;;;;;;;12.03;10.33;;;17.00;99.90;;;;;;5066658;28;20865;-72
2021/06/07 04:21:46;;;;;;;14.90;12.57;;;17.00;99.90;;;;;;5073455;28;20397;-72
2021/06/07 04:24:31;;;;;;;14.27;11.43;;;17.10;99.90;;;;;;5068922;28;20461;-73
2021/06/07 04:27:18;;;;;;;13.40;11.50;;;17.10;99.90;;;;;;5073007;28;20482;-71
2021/06/07 04:30:05;;;;;;;10.90;9.67;;;17.20;99.90;;;;;;5075870;28;20469;-72
2021/06/07 04:32:52;;;;;;;9.07;7.97;;;17.20;99.90;;;;;;5065749;28;20801;-71
2021/06/07 04:35:38;;;;;;;9.53;8.27;;;17.30;99.90;;;;;;5067870;28;20429;-73
2021/06/07 04:38:23;;;;;;;8.80;8.00;;;17.30;99.90;;;;;;5075035;28;20544;-73
2021/06/07 04:41:08;;;;;;;12.47;8.03;;;17.30;99.90;;;;;;5068908;28;20587;-72
2021/06/07 04:43:54;;;;;;;8.20;7.30;;;17.30;99.90;;;;;;5070400;28;20427;-73
2021/06/07 04:46:39;;;;;;;9.77;7.60;;;17.20;99.90;;;;;;5069039;28;20439;-72
2021/06/07 04:49:24;;;;;;;12.17;8.53;;;17.30;99.90;;;;;;5068446;28;20546;-73
2021/06/07 04:52:10;;;;;;;12.30;7.97;;;17.30;99.90;;;;;;5071915;28;20475;-72
2021/06/07 04:54:55;;;;;;;9.63;8.57;;;17.30;99.90;;;;;;5066347;28;21000;-73
2021/06/07 04:57:40;;;;;;;8.23;6.67;;;17.30;99.90;;;;;;5073508;28;20531;-72
2021/06/07 05:00:27;;;;;;;9.27;7.10;;;17.40;99.90;;;;;;5071586;28;20450;-72
2021/06/07 05:03:12;;;;;;;9.53;7.17;;;17.40;99.90;;;;;;5071016;28;20965;-69
2021/06/07 05:05:59;;;;;;;8.33;6.83;;;17.40;99.90;;;;;;5064613;28;20441;-73
2021/06/07 05:08:44;;;;;;;8.13;7.30;;;17.40;99.90;;;;;;5071815;28;20413;-71
2021/06/07 05:11:29;;;;;;;8.53;7.60;;;17.40;99.90;;;;;;5067065;28;20502;-71
2021/06/07 05:14:14;;;;;;;9.33;7.67;;;17.40;99.90;;;;;;5070666;28;20422;-74
2021/06/07 05:17:01;;;;;;;9.40;8.50;;;17.40;99.90;;;;;;5071792;28;20446;-73
2021/06/07 05:19:48;;;;;;;8.60;7.80;;;17.40;99.90;;;;;;5066522;28;20482;-73
2021/06/07 05:22:33;;;;;;;9.63;8.63;;;17.50;99.90;;;;;;5070620;28;20426;-73
2021/06/07 05:25:19;;;;;;;13.00;9.87;;;17.40;99.90;;;;;;5069408;28;20457;-73
2021/06/07 05:28:08;;;;;;;12.90;10.27;;;17.50;99.90;;;;;;5068978;28;20434;-71
2021/06/07 05:30:54;;;;;;;12.03;10.03;;;17.40;99.90;;;;;;5070479;28;20475;-72
2021/06/07 05:33:40;;;;;;;12.07;10.23;;;17.40;99.90;;;;;;5067402;28;20513;-72
2021/06/07 05:36:25;;;;;;;11.27;10.10;;;17.50;99.90;;;;;;5070579;28;21034;-72
2021/06/07 05:39:15;;;;;;;10.70;9.20;;;17.50;99.90;;;;;;5070522;28;20492;-73
2021/06/07 05:42:01;;;;;;;16.00;10.97;;;17.50;99.90;;;;;;5070386;28;20436;-73
2021/06/07 05:44:46;;;;;;;9.50;8.50;;;17.50;99.90;;;;;;5069799;28;20530;-74
2021/06/07 05:47:31;;;;;;;9.83;8.83;;;17.50;99.90;;;;;;5071128;28;20442;-72
2021/06/07 05:50:21;;;;;;;11.63;9.37;;;17.50;99.90;;;;;;5072657;28;20474;-73
2021/06/07 05:53:07;;;;;;;10.60;9.50;;;17.50;99.90;;;;;;5074210;28;20452;-73
2021/06/07 05:55:52;;;;;;;10.80;9.10;;;17.50;99.90;;;;;;5065126;28;20555;-72
2021/06/07 05:58:37;;;;;;;12.00;9.90;;;17.50;99.90;;;;;;5067996;28;20499;-73
2021/06/07 06:01:22;;;;;;;14.97;9.60;;;17.50;99.90;;;;;;5066496;28;20420;-73
2021/06/07 06:04:07;;;;;;;10.87;9.77;;;17.40;99.90;;;;;;5067880;28;20426;-73
2021/06/07 06:06:54;;;;;;;11.27;10.17;;;17.40;99.90;;;;;;5072796;28;20430;-72
2021/06/07 06:09:39;;;;;;;10.70;9.07;;;17.40;99.90;;;;;;5062420;28;20453;-73
2021/06/07 06:12:24;;;;;;;14.30;10.17;;;17.50;99.90;;;;;;5069589;28;20518;-72
2021/06/07 06:15:13;;;;;;;14.20;9.97;;;17.50;99.90;;;;;;5069866;28;20447;-73
2021/06/07 06:17:59;;;;;;;13.60;10.97;;;17.40;99.90;;;;;;5066743;28;20451;-73
2021/06/07 06:20:44;;;;;;;13.70;12.30;;;17.30;99.90;;;;;;5071074;28;20915;-73
2021/06/07 06:23:30;;;;;;;17.73;12.50;;;17.40;99.90;;;;;;5069634;28;20464;-72
2021/06/07 06:26:15;;;;;;;17.23;11.90;;;17.40;99.90;;;;;;5064212;28;20466;-74
2021/06/07 06:29:01;;;;;;;17.63;12.17;;;17.40;99.90;;;;;;5071444;28;20577;-73
2021/06/07 06:31:45;;;;;;;14.60;12.27;;;17.50;99.90;;;;;;5070702;28;20973;-73
2021/06/07 06:34:31;;;;;;;18.90;11.83;;;17.50;99.90;;;;;;5068503;28;20441;-72
2021/06/07 06:37:16;;;;;;;15.87;13.33;;;17.50;99.90;;;;;;5066926;28;21009;-73
2021/06/07 06:40:04;;;;;;;15.00;12.43;;;17.50;99.90;;;;;;5070405;28;20466;-71
2021/06/07 06:42:50;;;;;;;18.33;12.70;;;17.50;99.90;;;;;;5069130;28;20952;-73
2021/06/07 06:45:35;;;;;;;17.53;11.20;;;17.50;99.90;;;;;;5069136;28;21060;-72
2021/06/07 06:48:21;;;;;;;16.67;12.30;;;17.50;99.90;;;;;;5069387;28;20440;-73
2021/06/07 06:51:06;;;;;;;15.87;13.57;;;17.50;99.90;;;;;;5075846;28;20506;-73
2021/06/07 06:53:52;;;;;;;19.10;13.90;;;17.50;99.90;;;;;;5068029;28;20461;-73
2021/06/07 06:56:38;;;;;;;18.47;12.43;;;17.50;99.90;;;;;;5072438;28;20859;-73
2021/06/07 06:59:23;;;;;;;20.23;12.30;;;17.50;99.90;;;;;;5066963;28;20481;-73
2021/06/07 07:02:09;;;;;;;19.30;14.40;;;17.50;99.90;;;;;;5065858;28;20462;-73
2021/06/07 07:04:54;;;;;;;15.90;13.77;;;17.50;99.90;;;;;;5065848;28;20857;-72
2021/06/07 07:07:39;;;;;;;17.20;13.27;;;17.50;99.90;;;;;;5069603;28;20435;-73
2021/06/07 07:10:25;;;;;;;20.00;13.77;;;17.50;99.90;;;;;;5066346;28;20940;-73
2021/06/07 07:13:11;;;;;;;14.60;13.10;;;17.60;99.90;;;;;;5074935;28;20409;-73
2021/06/07 07:15:56;;;;;;;19.07;13.43;;;17.60;99.90;;;;;;5068874;28;20444;-73
2021/06/07 07:18:41;;;;;;;15.60;13.80;;;17.70;99.90;;;;;;5063199;28;20558;-73
2021/06/07 07:21:26;;;;;;;14.70;12.83;;;17.70;99.90;;;;;;5067681;28;20435;-72
2021/06/07 07:24:12;;;;;;;15.00;13.03;;;17.60;99.90;;;;;;5066706;28;20493;-73
2021/06/07 07:26:57;;;;;;;14.70;12.73;;;17.60;99.90;;;;;;5062276;28;20423;-72
2021/06/07 07:29:45;;;;;;;15.13;12.90;;;17.60;99.90;;;;;;5068803;28;20515;-71
2021/06/07 07:32:30;;;;;;;19.23;13.60;;;17.60;99.90;;;;;;5066829;28;20458;-73
2021/06/07 07:35:16;;;;;;;20.90;11.70;;;17.60;99.90;;;;;;5063616;28;20501;-72
2021/06/07 07:38:03;;;;;;;16.37;11.03;;;17.70;99.90;;;;;;5066251;28;20465;-72
2021/06/07 07:40:48;;;;;;;13.13;10.80;;;17.70;99.90;;;;;;5064821;28;20436;-73
2021/06/07 07:43:34;;;;;;;12.37;9.53;;;17.70;99.90;;;;;;5068412;28;20455;-73
2021/06/07 07:46:20;;;;;;;11.50;8.17;;;17.70;99.90;;;;;;5071400;28;20873;-71
2021/06/07 07:49:05;;;;;;;12.73;9.30;;;17.70;99.90;;;;;;5070017;28;20472;-73
2021/06/07 07:51:51;;;;;;;12.60;10.03;;;17.60;99.90;;;;;;5069818;28;20481;-73
2021/06/07 07:54:37;;;;;;;13.97;9.23;;;17.60;99.90;;;;;;5069013;28;20494;-72
2021/06/07 07:57:23;;;;;;;10.23;8.97;;;17.70;99.90;;;;;;5081274;28;20432;-72
2021/06/07 08:00:10;;;;;;;11.70;9.63;;;17.70;99.90;;;;;;5072499;28;20443;-72
2021/06/07 08:02:58;;;;;;;14.20;9.40;;;17.80;99.90;;;;;;5064294;28;20931;-73
2021/06/07 08:05:44;;;;;;;12.00;9.37;;;17.80;99.90;;;;;;5068196;28;20798;-72
2021/06/07 08:08:29;;;;;;;11.20;9.87;;;17.90;99.90;;;;;;5071150;28;20444;-73
2021/06/07 08:11:14;;;;;;;10.67;9.60;;;17.90;99.90;;;;;;5069526;28;20473;-71
2021/06/07 08:13:59;;;;;;;10.23;8.83;;;18.00;99.90;;;;;;5071400;28;20882;-72
2021/06/07 08:16:45;;;;;;;12.77;10.50;;;18.00;99.90;;;;;;5074461;28;20511;-70
2021/06/07 08:19:31;;;;;;;12.70;9.27;;;18.00;99.90;;;;;;5072500;28;20443;-70
2021/06/07 08:22:18;;;;;;;13.17;8.80;;;18.00;99.90;;;;;;5067798;28;20849;-71
2021/06/07 08:25:05;;;;;;;10.00;8.50;;;18.00;99.90;;;;;;5070671;28;20989;-71
2021/06/07 08:27:50;;;;;;;10.27;8.60;;;18.10;99.90;;;;;;5071465;28;20405;-72
2021/06/07 08:30:36;;;;;;;9.03;8.13;;;18.10;99.90;;;;;;5067442;28;21090;-72
2021/06/07 08:33:21;;;;;;;9.00;8.03;;;18.20;99.90;;;;;;5072712;28;20431;-72
2021/06/07 08:36:08;;;;;;;8.37;6.90;;;18.20;99.90;;;;;;5072423;28;20489;-72
2021/06/07 08:38:53;;;;;;;11.40;8.50;;;18.30;99.90;;;;;;5062564;28;20424;-71
2021/06/07 08:41:39;;;;;;;10.13;6.67;;;18.20;99.90;;;;;;5067854;28;20473;-72
2021/06/07 08:44:24;;;;;;;9.10;7.53;;;18.20;99.90;;;;;;5069527;28;20430;-72
2021/06/07 08:47:09;;;;;;;9.93;7.03;;;18.20;99.90;;;;;;5069713;28;20446;-72
2021/06/07 08:49:55;;;;;;;10.93;7.40;;;18.20;99.90;;;;;;5069994;28;21008;-72
2021/06/07 08:52:43;;;;;;;8.73;6.33;;;18.20;99.90;;;;;;5066216;28;20442;-72
2021/06/07 08:55:31;;;;;;;7.73;6.90;;;18.20;99.90;;;;;;5072299;28;20443;-73
2021/06/07 08:58:16;;;;;;;9.83;7.40;;;18.20;99.90;;;;;;5072284;28;20574;-73
2021/06/07 09:01:01;;;;;;;10.10;7.80;;;18.20;99.90;;;;;;5068637;28;20817;-71
2021/06/07 09:03:46;;;;;;;8.77;7.50;;;18.20;99.90;;;;;;5065237;28;20409;-73
2021/06/07 09:06:32;;;;;;;9.77;8.77;;;18.30;99.90;;;;;;5071898;28;20417;-71
2021/06/07 09:09:21;;;;;;;9.57;8.23;;;18.20;99.90;;;;;;5067540;28;20419;-73
2021/06/07 09:12:11;;;;;;;9.00;7.87;;;18.30;99.90;;;;;;5072163;28;20427;-72
2021/06/07 09:14:56;;;;;;;10.40;9.17;;;18.30;99.90;;;;;;5060828;28;20542;-72
2021/06/07 09:17:45;;;;;;;15.07;8.93;;;18.30;99.90;;;;;;5068559;28;20394;-72
2021/06/07 09:20:31;;;;;;;13.27;9.23;;;18.30;99.90;;;;;;5071656;28;20393;-71
2021/06/07 09:23:16;;;;;;;14.03;9.77;;;18.40;99.90;;;;;;5070189;28;20393;-71
2021/06/07 09:26:03;;;;;;;11.90;8.90;;;18.50;99.90;;;;;;5071837;28;20421;-72
2021/06/07 09:28:48;;;;;;;15.30;10.50;;;18.60;99.90;;;;;;5066466;28;20462;-71
2021/06/07 09:31:36;;;;;;;12.10;10.60;;;18.60;99.90;;;;;;5069682;28;20518;-72
2021/06/07 09:34:25;;;;;;;11.60;10.40;;;18.70;99.90;;;;;;5071221;28;20531;-73
2021/06/07 09:37:12;;;;;;;16.23;12.43;;;18.70;99.90;;;;;;5068179;28;20479;-73
2021/06/07 09:40:17;;;;;;;14.30;12.07;;;18.60;99.90;;;;;;5069917;28;20438;-72
2021/06/07 09:43:06;;;;;;;13.83;11.40;;;18.50;99.90;;;;;;5065753;28;20441;-71
2021/06/07 09:45:55;;;;;;;14.37;12.10;;;18.60;99.90;;;;;;5070322;28;20445;-71
2021/06/07 09:48:40;;;;;;;20.00;14.17;;;18.50;99.90;;;;;;5067742;28;20534;-72
2021/06/07 09:51:25;;;;;;;16.10;13.80;;;18.50;99.90;;;;;;5072219;28;20541;-71
2021/06/07 09:54:14;;;;;;;18.03;13.87;;;18.50;99.90;;;;;;5067793;28;20405;-72
2021/06/07 09:57:01;;;;;;;15.33;13.50;;;18.50;99.90;;;;;;5072455;28;20424;-72
2021/06/07 09:59:50;;;;;;;24.20;15.07;;;18.50;99.90;;;;;;5069218;28;20471;-72
2021/06/07 10:02:36;;;;;;;28.50;20.90;;;18.50;99.90;;;;;;5067342;28;20513;-71
2021/06/07 10:05:32;;;;;;;19.73;16.10;;;18.60;99.90;;;;;;5068518;28;20795;-70
2021/06/07 10:08:19;;;;;;;23.70;19.80;;;18.70;99.90;;;;;;5068489;28;20384;-70
2021/06/07 10:11:17;;;;;;;21.20;18.30;;;18.70;99.90;;;;;;5066670;28;20541;-67
2021/06/07 10:14:09;;;;;;;23.50;18.03;;;18.80;99.90;;;;;;5067979;28;20433;-71
2021/06/07 10:16:57;;;;;;;25.60;20.10;;;18.80;99.90;;;;;;5066168;28;20424;-73
2021/06/07 10:19:48;;;;;;;23.33;18.17;;;18.60;99.90;;;;;;5065832;28;20831;-72
2021/06/07 10:22:34;;;;;;;27.57;18.77;;;18.60;99.90;;;;;;5065308;28;20557;-72
2021/06/07 10:25:18;;;;;;;24.90;19.40;;;18.70;99.90;;;;;;5069073;28;20490;-72
2021/06/07 10:28:04;;;;;;;24.83;20.37;;;18.70;99.90;;;;;;5068038;28;20421;-72
2021/06/07 10:30:50;;;;;;;26.70;20.10;;;18.70;99.90;;;;;;5071217;28;20556;-73
2021/06/07 10:33:38;;;;;;;23.40;19.43;;;18.70;99.90;;;;;;5070948;28;20443;-72
2021/06/07 10:36:33;;;;;;;32.53;21.87;;;18.80;99.90;;;;;;5071157;28;20483;-72
2021/06/07 10:39:27;;;;;;;22.70;18.20;;;18.80;99.90;;;;;;5071534;28;20459;-73
2021/06/07 10:42:24;;;;;;;24.50;19.73;;;18.80;99.90;;;;;;5067782;28;20408;-70
2021/06/07 10:45:22;;;;;;;27.47;21.30;;;18.90;99.90;;;;;;5075378;28;20413;-72
2021/06/07 10:48:10;;;;;;;27.13;21.40;;;18.90;99.90;;;;;;5068143;28;20438;-72
2021/06/07 10:51:08;;;;;;;30.17;21.47;;;18.90;99.90;;;;;;5071178;28;20854;-70
2021/06/07 10:54:14;;;;;;;26.33;20.97;;;18.80;99.90;;;;;;5066287;28;20778;-71
2021/06/07 10:57:31;;;;;;;28.77;20.43;;;18.80;99.90;;;;;;5069120;28;20413;-72
2021/06/07 11:00:29;;;;;;;28.17;21.60;;;18.80;99.90;;;;;;5066902;28;20411;-72
2021/06/07 11:03:17;;;;;;;27.43;21.93;;;18.90;99.90;;;;;;5069516;28;20458;-73
2021/06/07 11:06:06;;;;;;;28.50;22.97;;;18.90;99.90;;;;;;5068466;28;20471;-72
2021/06/07 11:09:08;;;;;;;27.73;21.20;;;18.90;99.90;;;;;;5071009;28;20754;-73
2021/06/07 11:11:53;;;;;;;24.13;21.23;;;18.90;99.90;;;;;;5074072;28;20966;-68
2021/06/07 11:15:07;;;;;;;26.03;20.30;;;18.90;99.90;;;;;;5068277;28;20453;-72
2021/06/07 11:17:53;;;;;;;26.73;21.63;;;19.00;99.90;;;;;;5065821;28;20429;-72
2021/06/07 11:20:38;;;;;;;26.87;21.80;;;19.00;99.90;;;;;;5065834;28;20476;-71
2021/06/07 11:23:36;;;;;;;27.43;20.63;;;19.00;99.90;;;;;;5074194;28;20476;-73
2021/06/07 11:26:33;;;;;;;26.83;21.77;;;19.00;99.90;;;;;;5071416;28;20430;-73
2021/06/07 11:29:19;;;;;;;24.90;20.30;;;19.00;99.90;;;;;;5074218;28;20846;-72
2021/06/07 11:32:11;;;;;;;27.13;21.53;;;19.10;99.90;;;;;;5069645;28;20919;-69
2021/06/07 11:34:58;;;;;;;30.57;22.77;;;19.10;99.90;;;;;;5073031;28;20443;-72
2021/06/07 11:37:42;;;;;;;24.30;21.27;;;19.30;99.90;;;;;;5074392;28;20848;-69
2021/06/07 11:40:39;;;;;;;27.83;22.07;;;19.40;99.90;;;;;;5074193;28;20428;-73
2021/06/07 11:43:55;;;;;;;24.27;19.00;;;19.50;99.90;;;;;;5070908;28;20431;-69
2021/06/07 11:47:04;;;;;;;22.60;19.87;;;19.60;99.90;;;;;;5031025;28;20409;-73
2021/06/07 11:50:06;;;;;;;24.40;20.30;;;19.70;99.90;;;;;;5064020;28;20458;-72
2021/06/07 11:52:52;;;;;;;25.00;20.67;;;19.70;99.90;;;;;;5071267;28;20422;-73
2021/06/07 11:55:39;;;;;;;24.60;21.20;;;19.70;99.90;;;;;;5072763;28;20782;-71
2021/06/07 11:58:26;;;;;;;25.97;20.07;;;19.60;99.90;;;;;;5074117;28;20421;-72
2021/06/07 12:01:11;;;;;;;25.57;20.93;;;19.60;99.90;;;;;;5075736;28;20419;-70
2021/06/07 12:03:57;;;;;;;25.20;21.67;;;19.60;99.90;;;;;;5072177;28;20427;-72
2021/06/07 12:06:42;;;;;;;25.17;20.60;;;19.70;99.90;;;;;;5074601;28;20393;-71
2021/06/07 12:09:28;;;;;;;26.43;20.93;;;19.60;99.90;;;;;;5071464;28;20451;-72
2021/06/07 12:12:15;;;;;;;27.27;21.13;;;19.60;99.90;;;;;;5071295;28;20522;-70
2021/06/07 12:15:09;;;;;;;22.40;18.33;;;19.50;99.90;;;;;;5069150;28;20493;-72
2021/06/07 12:17:54;;;;;;;30.50;19.63;;;19.50;99.90;;;;;;5070763;28;20530;-72
2021/06/07 12:20:40;;;;;;;23.60;19.13;;;19.50;99.90;;;;;;5072191;28;20414;-72
2021/06/07 12:23:29;;;;;;;31.13;22.43;;;19.50;99.90;;;;;;5074928;28;20796;-71
2021/06/07 12:29:28;;;;;;;26.30;20.90;;;19.60;99.90;;;;;;5077366;28;20897;-72
2021/06/07 12:32:16;;;;;;;28.17;19.43;;;19.60;99.90;;;;;;5069319;28;20462;-72
2021/06/07 12:35:10;;;;;;;26.47;21.97;;;19.60;99.90;;;;;;5070993;28;20470;-72
2021/06/07 12:37:58;;;;;;;27.80;21.63;;;19.60;99.90;;;;;;5067139;28;20421;-71
2021/06/07 12:40:45;;;;;;;25.30;20.37;;;19.50;99.90;;;;;;5069696;28;20420;-71
2021/06/07 12:43:30;;;;;;;25.47;20.70;;;19.50;99.90;;;;;;5071360;28;20890;-72
2021/06/07 12:46:17;;;;;;;24.80;21.07;;;19.60;99.90;;;;;;5073214;28;20486;-71
2021/06/07 12:49:02;;;;;;;25.93;20.70;;;19.50;99.90;;;;;;5075205;28;20489;-71
2021/06/07 12:51:56;;;;;;;25.97;20.47;;;19.60;99.90;;;;;;5063114;28;20478;-69
2021/06/07 12:54:42;;;;;;;24.30;19.40;;;19.60;99.90;;;;;;5069259;28;20461;-71
2021/06/07 12:57:29;;;;;;;25.40;21.27;;;19.60;99.90;;;;;;5068003;28;20497;-70
2021/06/07 13:00:33;;;;;;;27.03;22.37;;;19.70;99.90;;;;;;5068194;28;20488;-70
2021/06/07 13:03:26;;;;;;;24.53;20.60;;;19.70;99.90;;;;;;5066457;28;20497;-70
2021/06/07 13:06:13;;;;;;;22.60;19.03;;;19.70;99.90;;;;;;5067767;28;20472;-70
2021/06/07 13:09:04;;;;;;;27.57;21.03;;;19.70;99.90;;;;;;5062288;28;20458;-71
2021/06/07 13:11:51;;;;;;;22.90;19.13;;;19.70;99.90;;;;;;5066078;28;20681;-68
2021/06/07 13:14:36;;;;;;;23.47;18.30;;;19.60;99.90;;;;;;5067626;28;20441;-70
2021/06/07 13:17:22;;;;;;;27.43;20.73;;;19.60;99.90;;;;;;5070700;28;20480;-69
2021/06/07 13:20:17;;;;;;;23.30;18.53;;;19.60;99.90;;;;;;5071362;28;20434;-69
2021/06/07 13:23:02;;;;;;;27.10;19.53;;;19.60;99.90;;;;;;5067093;28;20447;-69
2021/06/07 13:25:47;;;;;;;31.63;18.27;;;19.60;99.90;;;;;;5069249;28;20470;-69
2021/06/07 13:28:32;;;;;;;21.77;18.50;;;19.60;99.90;;;;;;5067305;28;20450;-69
2021/06/07 13:31:17;;;;;;;25.33;19.17;;;19.50;99.90;;;;;;5065324;28;20509;-69
2021/06/07 13:34:11;;;;;;;21.80;19.50;;;19.50;99.90;;;;;;5068424;28;20441;-69
2021/06/07 13:37:10;;;;;;;22.70;19.00;;;19.50;99.90;;;;;;5067078;28;20779;-69
2021/06/07 13:40:10;;;;;;;26.73;20.83;;;19.50;99.90;;;;;;5070634;28;20501;-69
2021/06/07 13:42:57;;;;;;;24.33;18.90;;;19.50;99.90;;;;;;5066990;28;20439;-69
2021/06/07 13:45:44;;;;;;;25.23;19.57;;;19.50;99.90;;;;;;5067999;28;20866;-69
2021/06/07 13:48:35;;;;;;;24.70;20.90;;;19.60;99.90;;;;;;5068545;28;20418;-69
2021/06/07 13:51:32;;;;;;;23.30;18.53;;;19.60;99.90;;;;;;5067621;28;20513;-69
2021/06/07 13:54:18;;;;;;;24.50;19.03;;;19.60;99.90;;;;;;5067239;28;20522;-70
2021/06/07 13:57:07;;;;;;;22.03;19.70;;;19.70;99.90;;;;;;5068047;28;20515;-69
2021/06/07 13:59:52;;;;;;;23.67;18.60;;;19.80;99.90;;;;;;5061940;28;20455;-69
2021/06/07 14:02:37;;;;;;;22.17;19.80;;;19.90;99.90;;;;;;5064654;28;20439;-69
2021/06/07 14:05:24;;;;;;;23.03;19.07;;;20.10;99.90;;;;;;5065603;28;20530;-69
2021/06/07 14:08:11;;;;;;;26.40;20.90;;;20.20;99.90;;;;;;5059944;28;20445;-69
2021/06/07 14:11:00;;;;;;;22.07;18.13;;;20.00;99.90;;;;;;5073789;28;20873;-69
2021/06/07 14:13:45;;;;;;;25.37;18.23;;;20.10;99.90;;;;;;5074040;28;20565;-69
2021/06/07 14:16:32;;;;;;;26.20;18.13;;;20.30;99.90;;;;;;5064479;28;20535;-69